Pagina principale
METAR-TAF:

METAR-TAF

Aeroporti :

Bergamo, Italia

Aeroporto di Bergamo-Orio al Serio

latitudine: 45-40N, longitudine: 009-42E, altezza: 238 m

Osservazione

Il bollettino è stato emesso 34 minuti fa, alle 15:20 UTC
Vento 5 kt da est/sud-est, variando fra est e sud-est
Temperature 10°C
Umidità 76%
Pressione 1011 hPa
Visibilità: 9000 m

METAR: LIME 191520Z 11005KT 080V140 9000 NSC 10/06 Q1011 NOSIG

Ora: 16:54 (15:54 UTC)

Previsione

Il bollettino è stato emesso 4 ore e 54 minuti fa, alle 11:00 UTC
Previsione valida dal 19 alle 12 UTC al 20 alle 12 UTC
Vento 5 kt da direzioni variabili
Visibilità: 8000 m

TAF: LIME 191100Z 1912/2012 VRB05KT 8000 NSC

Osservazioni e previsioni meteorologiche di più di 4000 aeroporti (messaggi METAR e TAF).

Le stazioni disponibili sono rappresentate dai dischi gialli e rossi sulla carta.

Puntare il mouse per vedere il nome della stazione.

Clicca sopra per visualizzare le osservazioni e previsioni meteorologiche.

Per cambiare la mappa : fare clic sui pulsanti verdi con una croce nera per ingrandire, il pulsante verde con un trattino per diminuire, o sulla freccia verde per le mappe adiacenti.


METAR-TAF: